Tillman, South Carolina
Current Conditions -  °F | °C
As of 4:56 AM on Wednesday 26 Nov 2014 (Local Time) from KNBC Reporting Station
Light Rain Light Rain  
Wind Chill: 53°   Ceiling: 800
Heat Index: 53°   Visibility: 2mi
Dew Point: 50°   Wind: 14mph
Humidity: 89%   Direction: 300°WNW
Pressure: 29.87"   Gusts: 23mph
Location:  32.46°N, 81.11°W
Report Text: KNBC 260956Z AUTO 30012G20KT 2SM -RA BR OVC008 12/10 A2987 RMK AO2 SFC VIS 6 CIG 005V012 SLP114 P0002 T01170100
Loading
Personal Weather Stations






























Interactive Weather Map New forecast layout! Learn more

10-Day Weather Forecast

Advertisements
Track Severe Weather on mobile